Time;durP1;ratioP1;P1;durP2;ratioP2;P2;SDS_P1;SDS_P2;PMS_P1;PMS_P2;Temp;Humidity;BMP_temperature;BMP_pressure;BME280_temperature;BME280_humidity;BME280_pressure;Samples;Min_cycle;Max_cycle;Signal;HPM_P1;HPM_P2
2023/11/08 00:00:00;;;;;;;7.40;1.50;;;10.40;99.30;;;;;;5073114;28;20453;-61
2023/11/08 00:02:26;;;;;;;3.70;1.27;;;10.40;99.20;;;;;;5072933;28;20464;-61
2023/11/08 00:04:53;;;;;;;4.27;1.37;;;10.40;99.30;;;;;;5073113;28;20441;-61
2023/11/08 00:07:21;;;;;;;4.80;1.50;;;10.30;99.20;;;;;;5073525;28;20491;-61
2023/11/08 00:09:48;;;;;;;4.43;1.73;;;10.40;99.40;;;;;;5073071;28;20447;-61
2023/11/08 00:12:15;;;;;;;4.03;1.30;;;10.40;99.20;;;;;;5072820;28;20630;-61
2023/11/08 00:14:42;;;;;;;3.10;1.30;;;10.40;99.20;;;;;;5073012;28;20445;-61
2023/11/08 00:17:09;;;;;;;3.23;1.10;;;10.50;99.10;;;;;;5073026;28;20857;-61
2023/11/08 00:19:35;;;;;;;1.60;0.80;;;10.50;99.20;;;;;;5073009;28;20852;-61
2023/11/08 00:22:02;;;;;;;2.03;1.10;;;10.40;99.00;;;;;;5072794;28;20441;-61
2023/11/08 00:24:30;;;;;;;3.90;0.83;;;10.40;99.00;;;;;;5072927;28;20448;-61
2023/11/08 00:26:57;;;;;;;5.20;1.37;;;10.50;99.30;;;;;;5072789;28;20547;-61
2023/11/08 00:29:24;;;;;;;2.67;0.90;;;10.50;99.10;;;;;;5072840;28;20440;-61
2023/11/08 00:31:51;;;;;;;4.00;0.77;;;10.60;99.00;;;;;;5072765;28;20834;-61
2023/11/08 00:34:19;;;;;;;2.07;1.03;;;10.60;99.10;;;;;;5072911;28;20464;-61
2023/11/08 00:36:46;;;;;;;1.93;0.70;;;10.60;98.80;;;;;;5076468;28;20448;-61
2023/11/08 00:39:15;;;;;;;5.80;1.40;;;10.50;98.80;;;;;;5076451;28;20440;-61
2023/11/08 00:41:43;;;;;;;3.23;1.20;;;10.50;98.90;;;;;;5076460;28;20535;-61
2023/11/08 00:44:10;;;;;;;1.97;1.20;;;10.60;98.90;;;;;;5076192;28;20460;-61
2023/11/08 00:46:37;;;;;;;1.10;0.70;;;10.50;98.70;;;;;;5076300;28;20507;-61
2023/11/08 00:49:04;;;;;;;3.17;1.00;;;10.50;98.90;;;;;;5075752;28;20448;-61
2023/11/08 00:51:31;;;;;;;2.53;1.00;;;10.50;98.70;;;;;;5076207;28;20448;-61
2023/11/08 00:54:00;;;;;;;3.23;1.07;;;10.50;98.90;;;;;;5076068;28;20460;-61
2023/11/08 00:56:26;;;;;;;2.07;1.10;;;10.50;99.00;;;;;;5076191;28;20451;-61
2023/11/08 00:58:54;;;;;;;1.90;1.10;;;10.50;99.00;;;;;;5076176;28;20490;-62
2023/11/08 01:01:22;;;;;;;2.30;0.90;;;10.50;99.30;;;;;;5074988;28;20455;-60
2023/11/08 01:03:49;;;;;;;3.97;1.10;;;10.50;99.20;;;;;;5075727;28;20469;-61
2023/11/08 01:06:16;;;;;;;2.57;1.20;;;10.50;99.00;;;;;;5075849;28;20480;-61
2023/11/08 01:08:43;;;;;;;4.50;0.90;;;10.50;99.10;;;;;;5075561;28;20962;-61
2023/11/08 01:11:09;;;;;;;4.00;1.40;;;10.50;99.20;;;;;;5075699;28;20507;-61
2023/11/08 01:13:36;;;;;;;2.83;1.20;;;10.50;99.30;;;;;;5075551;28;20491;-61
2023/11/08 01:16:06;;;;;;;6.90;1.50;;;10.60;99.30;;;;;;5075815;28;20484;-61
2023/11/08 01:18:34;;;;;;;4.03;1.20;;;10.60;99.40;;;;;;5075676;28;20468;-61
2023/11/08 01:21:01;;;;;;;2.50;1.37;;;10.50;99.10;;;;;;5075401;28;20977;-61
2023/11/08 01:23:27;;;;;;;2.63;1.27;;;10.50;99.20;;;;;;5075711;28;20460;-61
2023/11/08 01:25:54;;;;;;;3.67;1.20;;;10.50;99.20;;;;;;5075530;28;20479;-61
2023/11/08 01:28:21;;;;;;;3.83;1.00;;;10.50;99.20;;;;;;5075634;28;20449;-61
2023/11/08 01:30:48;;;;;;;3.50;1.83;;;10.50;99.20;;;;;;5075410;28;20443;-61
2023/11/08 01:33:16;;;;;;;4.73;1.13;;;10.50;99.20;;;;;;5075483;28;20456;-61
2023/11/08 01:35:44;;;;;;;2.83;1.27;;;10.50;99.20;;;;;;5075411;28;20456;-61
2023/11/08 01:38:12;;;;;;;5.63;1.20;;;10.50;99.10;;;;;;5074968;28;20444;-61
2023/11/08 01:40:38;;;;;;;4.37;1.20;;;10.50;99.00;;;;;;5075224;28;20449;-61
2023/11/08 01:43:05;;;;;;;1.70;1.00;;;10.50;99.00;;;;;;5075241;28;20468;-61
2023/11/08 01:45:32;;;;;;;3.63;1.10;;;10.50;99.10;;;;;;5075254;28;20474;-61
2023/11/08 01:47:59;;;;;;;3.63;1.03;;;10.50;98.80;;;;;;5074214;28;20483;-61
2023/11/08 01:50:28;;;;;;;3.37;1.20;;;10.50;98.80;;;;;;5074829;28;20947;-61
2023/11/08 01:52:55;;;;;;;2.60;1.37;;;10.50;98.90;;;;;;5075031;28;20492;-61
2023/11/08 01:55:22;;;;;;;8.27;1.40;;;10.50;98.80;;;;;;5075042;28;20448;-61
2023/11/08 01:57:51;;;;;;;2.63;0.80;;;10.60;98.90;;;;;;5074696;28;20938;-61
2023/11/08 02:00:23;;;;;;;5.37;1.23;;;10.60;98.70;;;;;;5074931;28;20917;-61
2023/11/08 02:02:50;;;;;;;3.10;1.10;;;10.50;98.40;;;;;;5075206;28;20468;-61
2023/11/08 02:05:17;;;;;;;1.57;0.87;;;10.50;98.50;;;;;;5075358;28;20440;-61
2023/11/08 02:07:45;;;;;;;1.93;1.03;;;10.50;98.50;;;;;;5074500;28;21017;-61
2023/11/08 02:10:11;;;;;;;6.77;1.20;;;10.50;98.40;;;;;;5074565;28;20441;-61
2023/11/08 02:12:40;;;;;;;3.10;1.80;;;10.50;98.40;;;;;;5074352;28;20476;-61
2023/11/08 02:15:07;;;;;;;2.80;1.10;;;10.50;98.30;;;;;;5074713;28;20448;-61
2023/11/08 02:17:34;;;;;;;3.17;0.90;;;10.40;98.40;;;;;;5074367;28;20441;-61
2023/11/08 02:20:03;;;;;;;4.63;1.07;;;10.50;98.60;;;;;;5074335;28;21008;-61
2023/11/08 02:22:30;;;;;;;5.40;1.20;;;10.50;98.40;;;;;;5074066;28;21065;-62
2023/11/08 02:24:59;;;;;;;2.60;1.10;;;10.50;98.30;;;;;;5074489;28;20874;-61
2023/11/08 02:27:26;;;;;;;4.57;0.73;;;10.50;98.50;;;;;;5074423;28;20481;-61
2023/11/08 02:29:55;;;;;;;1.73;0.97;;;10.50;98.50;;;;;;5074374;28;20440;-61
2023/11/08 02:32:22;;;;;;;0.90;0.70;;;10.40;98.50;;;;;;5074218;28;20464;-61
2023/11/08 02:34:49;;;;;;;1.43;0.90;;;10.40;98.50;;;;;;5074060;28;20441;-61
2023/11/08 02:37:16;;;;;;;2.00;0.80;;;10.40;98.50;;;;;;5074192;28;20441;-61
2023/11/08 02:39:43;;;;;;;2.30;1.03;;;10.40;98.50;;;;;;5073886;28;20813;-61
2023/11/08 02:42:11;;;;;;;2.27;1.30;;;10.40;98.50;;;;;;5074026;28;20448;-61
2023/11/08 02:44:38;;;;;;;3.50;1.13;;;10.40;98.50;;;;;;5074088;28;20456;-61
2023/11/08 02:47:06;;;;;;;2.07;1.00;;;10.30;98.50;;;;;;5073927;28;20476;-61
2023/11/08 02:49:33;;;;;;;1.90;1.17;;;10.30;98.50;;;;;;5073886;28;20543;-61
2023/11/08 02:51:59;;;;;;;4.83;0.90;;;10.30;98.60;;;;;;5073934;28;20444;-61
2023/11/08 02:54:27;;;;;;;2.93;0.97;;;10.30;98.50;;;;;;5073912;28;20440;-61
2023/11/08 02:56:53;;;;;;;1.87;0.77;;;10.30;98.70;;;;;;5073908;28;20445;-61
2023/11/08 02:59:22;;;;;;;2.67;1.07;;;10.30;98.90;;;;;;5074015;28;20441;-61
2023/11/08 03:01:49;;;;;;;3.37;1.00;;;10.40;98.70;;;;;;5073718;28;20447;-61
2023/11/08 03:04:16;;;;;;;1.60;1.00;;;10.30;98.50;;;;;;5073541;28;20543;-61
2023/11/08 03:06:44;;;;;;;3.23;1.10;;;10.30;98.60;;;;;;5073609;28;20521;-61
2023/11/08 03:09:11;;;;;;;5.07;1.03;;;10.20;98.60;;;;;;5073846;28;20453;-61
2023/11/08 03:11:38;;;;;;;2.53;0.93;;;10.20;98.80;;;;;;5073378;28;20464;-61
2023/11/08 03:14:06;;;;;;;2.47;2.17;;;10.20;98.80;;;;;;5073647;28;20496;-61
2023/11/08 03:16:34;;;;;;;6.50;1.10;;;10.20;98.90;;;;;;5073602;28;20452;-61
2023/11/08 03:19:01;;;;;;;2.97;0.90;;;10.20;98.80;;;;;;5073263;28;20949;-61
2023/11/08 03:21:28;;;;;;;2.27;1.07;;;10.10;98.90;;;;;;5074301;28;20440;-61
2023/11/08 03:23:54;;;;;;;4.93;1.13;;;10.10;99.00;;;;;;5073586;28;20475;-61
2023/11/08 03:26:21;;;;;;;6.17;1.10;;;10.00;99.20;;;;;;5073752;28;20453;-61
2023/11/08 03:28:48;;;;;;;6.33;1.00;;;10.00;99.30;;;;;;5073719;28;20512;-61
2023/11/08 03:31:16;;;;;;;2.53;1.23;;;10.00;99.40;;;;;;5073487;28;20449;-61
2023/11/08 03:33:44;;;;;;;1.97;0.90;;;10.10;99.40;;;;;;5073642;28;20475;-61
2023/11/08 03:36:11;;;;;;;6.60;1.20;;;10.00;99.30;;;;;;5073674;28;20523;-61
2023/11/08 03:38:37;;;;;;;2.37;1.20;;;10.00;99.30;;;;;;5073482;28;20441;-61
2023/11/08 03:41:04;;;;;;;5.10;1.10;;;10.00;99.50;;;;;;5073652;28;20448;-62
2023/11/08 03:43:31;;;;;;;1.30;1.00;;;10.00;99.60;;;;;;5073462;28;20518;-61
2023/11/08 03:45:58;;;;;;;2.03;0.97;;;10.00;99.60;;;;;;5073365;28;20450;-61
2023/11/08 03:48:24;;;;;;;3.63;1.17;;;10.00;99.50;;;;;;5073201;28;20479;-61
2023/11/08 03:50:52;;;;;;;1.63;1.10;;;9.90;99.90;;;;;;5073325;28;20451;-61
2023/11/08 03:53:19;;;;;;;3.80;1.23;;;9.90;99.90;;;;;;5073008;28;20977;-61
2023/11/08 03:55:46;;;;;;;6.60;1.50;;;9.90;99.90;;;;;;5073317;28;20432;-61
2023/11/08 03:58:12;;;;;;;5.40;1.53;;;9.90;99.90;;;;;;5073505;28;20437;-61
2023/11/08 04:00:39;;;;;;;2.80;1.10;;;9.90;99.90;;;;;;5073204;28;20441;-61
2023/11/08 04:03:06;;;;;;;2.83;1.10;;;9.90;99.90;;;;;;5073171;28;20457;-61
2023/11/08 04:05:32;;;;;;;1.73;1.20;;;9.90;99.90;;;;;;5072859;28;20938;-61
2023/11/08 04:08:00;;;;;;;1.93;1.07;;;9.90;99.90;;;;;;5072669;28;21016;-61
2023/11/08 04:10:27;;;;;;;2.20;1.23;;;9.90;99.90;;;;;;5074925;28;20452;-61
2023/11/08 04:12:54;;;;;;;4.53;1.37;;;9.90;99.90;;;;;;5077014;28;20468;-61
2023/11/08 04:15:20;;;;;;;7.13;1.40;;;9.90;99.90;;;;;;5076780;28;20444;-61
2023/11/08 04:17:47;;;;;;;6.77;1.40;;;9.90;99.90;;;;;;5077002;28;20433;-61
2023/11/08 04:20:14;;;;;;;6.63;1.90;;;9.80;99.90;;;;;;5077178;28;20437;-61
2023/11/08 04:22:42;;;;;;;3.70;1.37;;;9.80;99.90;;;;;;5076767;28;20460;-61
2023/11/08 04:25:10;;;;;;;1.77;1.20;;;9.80;99.90;;;;;;5076401;28;20854;-61
2023/11/08 04:27:37;;;;;;;5.87;1.40;;;9.90;99.90;;;;;;5076588;28;20481;-61
2023/11/08 04:30:04;;;;;;;2.57;1.33;;;9.80;99.90;;;;;;5076702;28;20441;-61
2023/11/08 04:32:31;;;;;;;5.00;1.70;;;9.80;99.90;;;;;;5076487;28;20459;-61
2023/11/08 04:34:57;;;;;;;4.97;1.27;;;9.80;99.90;;;;;;5076885;28;20441;-61
2023/11/08 04:37:24;;;;;;;3.93;1.10;;;9.80;99.90;;;;;;5076545;28;20444;-61
2023/11/08 04:39:51;;;;;;;1.73;1.20;;;9.80;99.90;;;;;;5076580;28;20803;-61
2023/11/08 04:42:19;;;;;;;5.30;1.50;;;9.80;99.90;;;;;;5076343;28;20440;-61
2023/11/08 04:44:47;;;;;;;5.43;1.23;;;9.80;99.90;;;;;;5076002;28;20812;-61
2023/11/08 04:47:17;;;;;;;3.03;1.27;;;9.80;99.90;;;;;;5076245;28;20515;-61
2023/11/08 04:49:44;;;;;;;2.53;1.23;;;9.80;99.90;;;;;;5076363;28;20437;-61
2023/11/08 04:52:11;;;;;;;4.93;1.80;;;9.80;99.90;;;;;;5076158;28;20514;-61
2023/11/08 04:54:38;;;;;;;5.83;1.17;;;9.90;99.90;;;;;;5075969;28;20479;-61
2023/11/08 04:57:05;;;;;;;1.97;1.03;;;9.80;99.90;;;;;;5076136;28;20440;-61
2023/11/08 04:59:35;;;;;;;7.40;1.53;;;9.90;99.90;;;;;;5076914;28;20449;-61
2023/11/08 05:02:02;;;;;;;4.20;2.10;;;9.80;99.90;;;;;;5076018;28;20467;-62
2023/11/08 05:04:29;;;;;;;3.70;1.13;;;9.80;99.90;;;;;;5076337;28;20444;-61
2023/11/08 05:06:56;;;;;;;3.20;1.30;;;9.80;99.90;;;;;;5075952;28;20449;-61
2023/11/08 05:09:22;;;;;;;6.33;2.17;;;9.70;99.90;;;;;;5075877;28;20480;-61
2023/11/08 05:11:49;;;;;;;2.17;1.23;;;9.70;99.90;;;;;;5075791;28;20458;-61
2023/11/08 05:14:17;;;;;;;4.13;1.30;;;9.70;99.90;;;;;;5075541;28;20984;-61
2023/11/08 05:16:45;;;;;;;6.83;1.30;;;9.70;99.90;;;;;;5075880;28;20445;-61
2023/11/08 05:19:12;;;;;;;3.90;1.30;;;9.70;99.90;;;;;;5075667;28;21035;-61
2023/11/08 05:21:38;;;;;;;3.23;1.30;;;9.70;99.90;;;;;;5074600;28;20440;-61
2023/11/08 05:24:06;;;;;;;3.33;1.37;;;9.70;99.90;;;;;;5075641;28;20869;-61
2023/11/08 05:26:32;;;;;;;6.90;1.40;;;9.70;99.90;;;;;;5075452;28;20445;-61
2023/11/08 05:28:59;;;;;;;4.47;1.20;;;9.70;99.90;;;;;;5075532;28;20480;-61
2023/11/08 05:31:26;;;;;;;5.10;1.97;;;9.70;99.90;;;;;;5075551;28;20444;-61
2023/11/08 05:33:54;;;;;;;4.00;1.13;;;9.70;99.90;;;;;;5075332;28;20491;-60
2023/11/08 05:36:20;;;;;;;6.60;2.17;;;9.70;99.90;;;;;;5074998;28;20930;-61
2023/11/08 05:38:47;;;;;;;5.83;1.60;;;9.70;99.90;;;;;;5071068;28;20934;-61
2023/11/08 05:41:19;;;;;;;6.83;1.97;;;9.70;99.90;;;;;;5063468;28;20441;-61
2023/11/08 05:43:46;;;;;;;4.30;1.53;;;9.70;99.90;;;;;;5055036;28;20473;-61
2023/11/08 05:46:13;;;;;;;4.60;1.90;;;9.70;99.90;;;;;;5055154;28;20450;-61
2023/11/08 05:48:41;;;;;;;8.17;1.60;;;9.70;99.90;;;;;;5055137;28;20484;-61
2023/11/08 05:51:09;;;;;;;5.40;1.67;;;9.70;99.90;;;;;;5055051;28;20686;-61
2023/11/08 05:53:37;;;;;;;2.40;1.50;;;9.70;99.90;;;;;;5054992;28;20466;-60
2023/11/08 05:56:04;;;;;;;5.13;1.93;;;9.70;99.90;;;;;;5054862;28;20452;-61
2023/11/08 05:58:31;;;;;;;3.60;1.40;;;9.70;99.90;;;;;;5055065;28;20448;-60
2023/11/08 06:00:58;;;;;;;8.70;1.47;;;9.70;99.90;;;;;;5054905;28;20438;-60
2023/11/08 06:03:25;;;;;;;4.00;1.97;;;9.70;99.90;;;;;;5054814;28;20497;-61
2023/11/08 06:05:52;;;;;;;11.27;1.70;;;9.70;99.90;;;;;;5054856;28;20499;-60
2023/11/08 06:08:20;;;;;;;4.53;1.67;;;9.70;99.90;;;;;;5054750;28;20488;-60
2023/11/08 06:10:48;;;;;;;10.50;2.50;;;9.70;99.90;;;;;;5054641;28;20456;-60
2023/11/08 06:13:15;;;;;;;5.33;1.90;;;9.70;99.90;;;;;;5054685;28;20469;-60
2023/11/08 06:15:41;;;;;;;6.57;2.17;;;9.70;99.90;;;;;;5054364;28;20438;-61
2023/11/08 06:18:08;;;;;;;11.47;2.20;;;9.80;99.90;;;;;;5054301;28;20986;-60
2023/11/08 06:20:35;;;;;;;3.57;1.97;;;9.80;99.90;;;;;;5054554;28;20445;-60
2023/11/08 06:23:02;;;;;;;6.20;2.47;;;9.80;99.90;;;;;;5054218;28;21090;-61
2023/11/08 06:25:31;;;;;;;4.47;2.30;;;9.90;99.90;;;;;;5054383;28;20484;-60
2023/11/08 06:27:59;;;;;;;4.50;2.03;;;9.90;99.90;;;;;;5054334;28;20495;-61
2023/11/08 06:30:25;;;;;;;8.27;2.47;;;9.90;99.90;;;;;;5054264;28;20851;-61
2023/11/08 06:32:52;;;;;;;5.47;2.17;;;9.90;99.90;;;;;;5053829;28;20476;-61
2023/11/08 06:35:19;;;;;;;5.27;2.20;;;9.90;99.90;;;;;;5054342;28;20441;-61
2023/11/08 06:37:46;;;;;;;6.90;2.00;;;9.90;99.90;;;;;;5053991;28;20452;-61
2023/11/08 06:40:13;;;;;;;4.23;1.47;;;9.90;99.90;;;;;;5054162;28;20449;-61
2023/11/08 06:42:42;;;;;;;10.00;2.67;;;9.90;99.90;;;;;;5054312;28;20556;-60
2023/11/08 06:45:09;;;;;;;5.90;2.13;;;9.90;99.90;;;;;;5054396;28;20477;-60
2023/11/08 06:47:36;;;;;;;7.17;2.67;;;9.90;99.90;;;;;;5054095;28;20533;-60
2023/11/08 06:50:03;;;;;;;10.20;2.80;;;9.90;99.90;;;;;;5054212;28;20441;-60
2023/11/08 06:52:30;;;;;;;10.03;2.73;;;9.90;99.90;;;;;;5053982;28;20470;-60
2023/11/08 06:54:56;;;;;;;6.27;2.30;;;9.90;99.90;;;;;;5053849;28;20441;-61
2023/11/08 06:57:23;;;;;;;5.67;2.10;;;10.00;99.90;;;;;;5053885;28;20493;-60
2023/11/08 06:59:51;;;;;;;5.57;2.03;;;10.00;99.90;;;;;;5053831;28;20434;-60
2023/11/08 07:02:20;;;;;;;7.83;2.73;;;10.00;99.90;;;;;;5054572;28;20449;-60
2023/11/08 07:04:46;;;;;;;4.00;1.83;;;10.00;99.90;;;;;;5053735;28;20449;-61
2023/11/08 07:07:13;;;;;;;7.60;2.43;;;10.00;99.90;;;;;;5053722;28;20453;-61
2023/11/08 07:09:40;;;;;;;6.97;1.90;;;10.00;99.90;;;;;;5053614;28;20485;-61
2023/11/08 07:12:08;;;;;;;5.60;2.43;;;10.00;99.90;;;;;;5053367;28;20462;-60
2023/11/08 07:14:35;;;;;;;14.33;2.77;;;10.10;99.90;;;;;;5053660;28;20790;-60
2023/11/08 07:17:03;;;;;;;5.63;2.57;;;10.10;99.90;;;;;;5053615;28;20446;-60
2023/11/08 07:19:30;;;;;;;5.77;2.53;;;10.20;99.90;;;;;;5053812;28;20449;-60
2023/11/08 07:21:57;;;;;;;6.50;2.90;;;10.20;99.90;;;;;;5053177;28;21012;-61
2023/11/08 07:24:24;;;;;;;5.03;1.80;;;10.20;99.90;;;;;;5053091;28;21014;-61
2023/11/08 07:26:50;;;;;;;5.03;2.10;;;10.30;99.90;;;;;;5053473;28;20855;-61
2023/11/08 07:29:17;;;;;;;7.47;1.77;;;10.40;99.90;;;;;;5053358;28;20893;-61
2023/11/08 07:31:45;;;;;;;5.53;1.80;;;10.40;99.90;;;;;;5053661;28;20446;-61
2023/11/08 07:34:16;;;;;;;8.33;2.10;;;10.50;99.90;;;;;;5053341;28;20468;-60
2023/11/08 07:36:42;;;;;;;3.80;1.73;;;10.50;99.90;;;;;;5052889;28;20843;-61
2023/11/08 07:39:15;;;;;;;10.20;2.13;;;10.50;99.90;;;;;;5053254;28;20441;-61
2023/11/08 07:41:42;;;;;;;7.00;2.30;;;10.60;99.90;;;;;;5053304;28;20430;-61
2023/11/08 07:44:09;;;;;;;7.20;2.47;;;10.60;99.90;;;;;;5052472;28;20461;-61
2023/11/08 07:46:36;;;;;;;7.03;2.17;;;10.60;99.90;;;;;;5053446;28;20516;-61
2023/11/08 07:49:02;;;;;;;10.23;1.93;;;10.60;99.90;;;;;;5053105;28;20482;-61
2023/11/08 07:51:31;;;;;;;9.30;2.67;;;10.70;99.90;;;;;;5053411;28;20452;-61
2023/11/08 07:53:59;;;;;;;7.10;1.87;;;10.70;99.90;;;;;;5053078;28;20518;-61
2023/11/08 07:56:26;;;;;;;7.77;1.57;;;10.70;99.90;;;;;;5052990;28;20894;-61
2023/11/08 07:58:53;;;;;;;12.40;1.97;;;10.70;99.90;;;;;;5053133;28;20467;-61
2023/11/08 08:01:20;;;;;;;8.33;2.70;;;10.70;99.90;;;;;;5053049;28;20449;-61
2023/11/08 08:03:47;;;;;;;6.80;1.97;;;10.60;99.60;;;;;;5052734;28;20858;-61
2023/11/08 08:06:14;;;;;;;3.63;1.50;;;10.60;99.70;;;;;;5053099;28;20548;-61
2023/11/08 08:08:43;;;;;;;6.50;1.87;;;10.60;99.80;;;;;;5052824;28;20469;-60
2023/11/08 08:11:11;;;;;;;6.10;1.50;;;10.60;99.80;;;;;;5052740;28;20461;-61
2023/11/08 08:13:37;;;;;;;2.40;1.80;;;10.60;99.70;;;;;;5052878;28;20500;-60
2023/11/08 08:16:05;;;;;;;6.57;1.50;;;10.60;99.70;;;;;;5052792;28;20445;-61
2023/11/08 08:18:32;;;;;;;3.37;1.50;;;10.60;99.70;;;;;;5052900;28;20474;-61
2023/11/08 08:20:59;;;;;;;4.90;1.40;;;10.70;99.80;;;;;;5052961;28;20450;-61
2023/11/08 08:23:26;;;;;;;5.80;1.50;;;10.70;99.80;;;;;;5052841;28;20461;-61
2023/11/08 08:25:54;;;;;;;3.30;1.30;;;10.70;99.40;;;;;;5052842;28;20452;-61
2023/11/08 08:28:21;;;;;;;7.47;2.00;;;10.70;99.60;;;;;;5052758;28;20570;-61
2023/11/08 08:30:48;;;;;;;8.10;2.27;;;10.70;99.60;;;;;;5052794;28;20467;-60
2023/11/08 08:33:16;;;;;;;4.23;1.47;;;10.80;99.70;;;;;;5052719;28;20458;-60
2023/11/08 08:35:42;;;;;;;10.10;2.30;;;10.90;99.50;;;;;;5052592;28;20482;-61
2023/11/08 08:38:09;;;;;;;4.40;1.30;;;11.00;99.30;;;;;;5052438;28;20453;-60
2023/11/08 08:40:36;;;;;;;5.20;1.87;;;11.00;99.10;;;;;;5052425;28;20931;-61
2023/11/08 08:43:05;;;;;;;9.90;2.00;;;11.20;99.10;;;;;;5052630;28;20557;-61
2023/11/08 08:45:31;;;;;;;7.33;2.20;;;11.30;98.80;;;;;;5052590;28;20480;-61
2023/11/08 08:47:59;;;;;;;6.27;2.00;;;11.50;98.50;;;;;;5052822;28;20452;-60
2023/11/08 08:50:26;;;;;;;7.93;1.60;;;11.60;97.80;;;;;;5052625;28;20481;-61
2023/11/08 08:52:53;;;;;;;6.80;1.53;;;11.70;97.60;;;;;;5052521;28;20904;-61
2023/11/08 08:55:20;;;;;;;3.67;1.37;;;11.70;97.30;;;;;;5052844;28;20468;-61
2023/11/08 08:57:48;;;;;;;7.20;1.47;;;11.90;97.10;;;;;;5055982;28;20448;-61
2023/11/08 09:00:18;;;;;;;5.33;1.77;;;12.00;96.70;;;;;;5056236;28;20445;-61
2023/11/08 09:02:45;;;;;;;3.80;1.23;;;12.10;96.10;;;;;;5055673;28;21002;-60
2023/11/08 09:05:12;;;;;;;7.00;2.53;;;12.00;95.70;;;;;;5055788;28;20451;-61
2023/11/08 09:07:39;;;;;;;3.70;1.70;;;12.10;95.70;;;;;;5056075;28;20844;-61
2023/11/08 09:10:08;;;;;;;5.63;1.67;;;12.10;95.40;;;;;;5055868;28;20483;-61
2023/11/08 09:12:35;;;;;;;4.40;1.60;;;12.10;95.40;;;;;;5055487;28;20526;-61
2023/11/08 09:15:04;;;;;;;3.67;1.73;;;12.00;94.90;;;;;;5055564;28;20954;-61
2023/11/08 09:17:32;;;;;;;10.57;1.93;;;11.90;94.50;;;;;;5055576;28;20496;-61
2023/11/08 09:19:59;;;;;;;5.97;1.40;;;11.80;94.90;;;;;;5055459;28;20950;-61
2023/11/08 09:22:26;;;;;;;2.90;1.60;;;11.80;95.20;;;;;;5055320;28;20469;-61
2023/11/08 09:24:52;;;;;;;6.43;2.40;;;11.80;95.00;;;;;;5055311;28;20955;-61
2023/11/08 09:27:19;;;;;;;7.53;2.10;;;11.90;94.60;;;;;;5055285;28;20974;-61
2023/11/08 09:29:46;;;;;;;5.40;2.10;;;12.00;94.60;;;;;;5055410;28;20580;-61
2023/11/08 09:32:13;;;;;;;6.90;2.60;;;12.10;94.30;;;;;;5055423;28;20477;-61
2023/11/08 09:34:41;;;;;;;5.53;1.53;;;12.20;94.20;;;;;;5055538;28;20449;-60
2023/11/08 09:37:08;;;;;;;11.77;2.13;;;12.30;93.60;;;;;;5055219;28;20442;-61
2023/11/08 09:39:36;;;;;;;3.97;1.40;;;12.40;93.60;;;;;;5055360;28;20452;-61
2023/11/08 09:42:04;;;;;;;3.17;1.10;;;12.50;93.40;;;;;;5055412;28;20454;-61
2023/11/08 09:44:32;;;;;;;4.40;1.40;;;12.70;92.90;;;;;;5055282;28;20441;-61
2023/11/08 09:46:59;;;;;;;7.50;1.80;;;12.70;92.90;;;;;;5054921;28;20816;-61
2023/11/08 09:49:26;;;;;;;4.87;2.00;;;12.90;93.20;;;;;;5055112;28;20477;-61
2023/11/08 09:51:54;;;;;;;6.50;2.10;;;13.00;92.50;;;;;;5055294;28;20445;-61
2023/11/08 09:54:21;;;;;;;3.10;1.40;;;13.20;92.30;;;;;;5055272;28;20466;-61
2023/11/08 09:56:48;;;;;;;8.73;1.33;;;13.40;91.40;;;;;;5054978;28;20445;-61
2023/11/08 09:59:16;;;;;;;7.53;1.80;;;13.40;90.50;;;;;;5054769;28;20932;-61
2023/11/08 10:01:45;;;;;;;4.30;1.73;;;13.40;90.70;;;;;;5054922;28;20437;-61
2023/11/08 10:04:15;;;;;;;5.00;1.47;;;13.40;90.30;;;;;;5054924;28;20492;-61
2023/11/08 10:06:44;;;;;;;5.23;1.37;;;13.40;90.10;;;;;;5054825;28;20442;-61
2023/11/08 10:09:12;;;;;;;5.03;1.77;;;13.40;89.70;;;;;;5054224;28;20481;-58
2023/11/08 10:11:42;;;;;;;7.13;1.73;;;13.50;90.30;;;;;;5054491;28;21013;-60
2023/11/08 10:14:08;;;;;;;3.97;1.33;;;13.60;90.50;;;;;;5054693;28;20469;-59
2023/11/08 10:16:46;;;;;;;7.20;1.80;;;13.50;90.10;;;;;;5054876;28;20445;-60
2023/11/08 10:19:14;;;;;;;7.90;2.77;;;13.60;89.50;;;;;;5054876;28;20469;-59
2023/11/08 10:21:47;;;;;;;7.30;1.70;;;13.70;90.30;;;;;;5054924;28;20441;-59
2023/11/08 10:24:16;;;;;;;4.50;1.70;;;13.80;89.00;;;;;;5054466;28;20918;-59
2023/11/08 10:26:44;;;;;;;4.40;1.57;;;13.80;88.40;;;;;;5054466;28;20449;-59
2023/11/08 10:29:12;;;;;;;7.43;1.60;;;13.70;88.10;;;;;;5054356;28;20579;-59
2023/11/08 10:31:39;;;;;;;5.00;1.47;;;13.80;88.40;;;;;;5054396;28;20519;-60
2023/11/08 10:34:07;;;;;;;4.83;1.80;;;13.80;87.90;;;;;;5054294;28;20461;-59
2023/11/08 10:36:34;;;;;;;5.33;1.70;;;13.80;88.10;;;;;;5054181;28;20445;-59
2023/11/08 10:39:03;;;;;;;11.60;1.37;;;13.90;87.80;;;;;;5054204;28;20444;-59
2023/11/08 10:41:31;;;;;;;7.23;1.70;;;14.00;86.90;;;;;;5053971;28;20966;-59
2023/11/08 10:44:10;;;;;;;4.80;1.43;;;14.10;87.30;;;;;;5054112;28;20851;-60
2023/11/08 10:46:39;;;;;;;2.80;1.30;;;14.20;86.40;;;;;;5054229;28;20445;-59
2023/11/08 10:49:07;;;;;;;4.03;1.57;;;14.20;85.20;;;;;;5053956;28;20446;-59
2023/11/08 10:51:37;;;;;;;8.20;1.40;;;14.10;84.10;;;;;;5054043;28;20442;-59
2023/11/08 10:54:05;;;;;;;4.50;1.23;;;14.00;84.50;;;;;;5053795;28;20994;-59
2023/11/08 10:56:36;;;;;;;5.43;1.33;;;14.00;83.90;;;;;;5053929;28;20449;-59
2023/11/08 10:59:04;;;;;;;4.10;1.10;;;14.00;83.10;;;;;;5053876;28;20430;-59
2023/11/08 11:01:31;;;;;;;3.73;1.40;;;13.90;82.60;;;;;;5053515;28;20446;-59
2023/11/08 11:04:05;;;;;;;4.97;1.10;;;13.90;83.10;;;;;;5053818;28;20457;-59
2023/11/08 11:06:34;;;;;;;7.80;1.30;;;14.00;83.50;;;;;;5053846;28;20460;-59
2023/11/08 11:09:03;;;;;;;7.20;2.40;;;14.10;82.90;;;;;;5053671;28;20884;-59
2023/11/08 11:11:32;;;;;;;5.37;1.50;;;14.10;81.70;;;;;;5053586;28;20485;-59
2023/11/08 11:14:07;;;;;;;2.67;1.30;;;14.20;82.70;;;;;;5053571;28;20461;-59
2023/11/08 11:16:41;;;;;;;5.43;1.40;;;14.20;82.80;;;;;;5053347;28;20913;-59
2023/11/08 11:19:12;;;;;;;3.60;1.60;;;14.20;83.00;;;;;;5052860;28;20429;-59
2023/11/08 11:21:43;;;;;;;6.40;1.50;;;14.20;83.40;;;;;;5053597;28;20421;-60
2023/11/08 11:24:39;;;;;;;6.53;1.83;;;14.40;81.70;;;;;;5053491;28;20466;-61
2023/11/08 11:27:07;;;;;;;3.43;1.33;;;14.70;81.70;;;;;;5053514;28;20437;-61
2023/11/08 11:29:35;;;;;;;11.17;1.30;;;15.20;79.30;;;;;;5053392;28;20492;-61
2023/11/08 11:32:04;;;;;;;4.13;1.03;;;15.50;74.80;;;;;;5053313;28;20823;-61
2023/11/08 11:34:46;;;;;;;6.30;1.23;;;15.60;74.70;;;;;;5053447;28;20536;-59
2023/11/08 11:37:16;;;;;;;3.10;1.10;;;15.70;73.50;;;;;;5053261;28;20488;-59
2023/11/08 11:39:49;;;;;;;8.03;1.67;;;15.70;72.60;;;;;;5053220;28;20891;-59
2023/11/08 11:42:17;;;;;;;4.03;1.20;;;15.50;72.60;;;;;;5053258;28;20430;-59
2023/11/08 11:44:54;;;;;;;3.33;1.27;;;15.60;73.60;;;;;;5053053;28;20955;-59
2023/11/08 11:47:27;;;;;;;4.43;1.37;;;15.70;71.70;;;;;;5053318;28;20421;-60
2023/11/08 11:49:58;;;;;;;3.50;1.20;;;15.70;72.30;;;;;;5053164;28;20505;-60
2023/11/08 11:52:26;;;;;;;5.13;1.50;;;15.70;71.20;;;;;;5053244;28;20465;-59
2023/11/08 11:54:53;;;;;;;4.63;1.90;;;15.50;71.90;;;;;;5052819;28;20819;-59
2023/11/08 11:57:22;;;;;;;6.80;1.87;;;15.50;72.10;;;;;;5052904;28;20453;-59
2023/11/08 11:59:52;;;;;;;2.87;0.87;;;15.50;72.40;;;;;;5052861;28;20823;-59
2023/11/08 12:02:20;;;;;;;2.63;0.93;;;15.60;72.00;;;;;;5052977;28;20453;-59
2023/11/08 12:04:48;;;;;;;2.30;0.97;;;15.50;70.50;;;;;;5053281;28;20438;-59
2023/11/08 12:07:17;;;;;;;2.70;1.60;;;15.60;71.20;;;;;;5053270;28;20480;-59
2023/11/08 12:09:45;;;;;;;3.00;1.13;;;15.50;71.50;;;;;;5052969;28;20561;-59
2023/11/08 12:12:12;;;;;;;6.30;2.00;;;15.60;71.50;;;;;;5052575;28;20464;-59
2023/11/08 12:14:43;;;;;;;5.67;1.30;;;15.70;70.40;;;;;;5052634;28;20947;-59
2023/11/08 12:17:11;;;;;;;3.83;1.40;;;15.90;69.70;;;;;;5052856;28;20475;-59
2023/11/08 12:19:39;;;;;;;4.43;0.93;;;16.10;69.90;;;;;;5052881;28;20460;-59
2023/11/08 12:22:06;;;;;;;3.80;1.23;;;16.30;69.40;;;;;;5052786;28;20858;-59
2023/11/08 12:24:33;;;;;;;3.63;1.40;;;16.10;68.90;;;;;;5052804;28;20445;-59
2023/11/08 12:27:01;;;;;;;4.37;1.27;;;16.00;68.50;;;;;;5052860;28;20438;-59
2023/11/08 12:29:28;;;;;;;5.27;1.33;;;15.90;69.00;;;;;;5052656;28;20445;-59
2023/11/08 12:31:55;;;;;;;5.50;1.10;;;15.70;69.20;;;;;;5055612;28;20441;-59
2023/11/08 12:34:26;;;;;;;1.87;1.00;;;15.60;69.50;;;;;;5056495;28;20473;-59
2023/11/08 12:36:53;;;;;;;5.43;2.20;;;15.60;70.30;;;;;;5056602;28;20433;-59
2023/11/08 12:39:21;;;;;;;3.43;1.60;;;15.50;70.50;;;;;;5056061;28;20438;-59
2023/11/08 12:41:50;;;;;;;4.63;1.43;;;15.50;71.30;;;;;;5056387;28;20447;-59
2023/11/08 12:44:19;;;;;;;2.53;1.10;;;15.50;72.20;;;;;;5056226;28;20519;-59
2023/11/08 12:46:48;;;;;;;2.30;0.90;;;15.40;69.80;;;;;;5056616;28;20451;-59
2023/11/08 12:49:16;;;;;;;2.07;0.93;;;15.20;70.10;;;;;;5056289;28;20481;-59